createdAt,value
2022-08-19T00:00:42.844Z,7.60
2022-08-19T00:03:28.628Z,6.47
2022-08-19T00:06:14.813Z,5.82
2022-08-19T00:09:06.484Z,5.95
2022-08-19T00:11:53.829Z,5.57
2022-08-19T00:14:40.203Z,5.68
2022-08-19T00:17:26.121Z,6.18
2022-08-19T00:20:17.673Z,8.45
2022-08-19T00:23:04.429Z,6.75
2022-08-19T00:25:50.167Z,8.73
2022-08-19T00:28:36.729Z,10.35
2022-08-19T00:31:22.705Z,8.88
2022-08-19T00:34:08.512Z,6.40
2022-08-19T00:36:54.520Z,8.18
2022-08-19T00:39:40.393Z,7.80
2022-08-19T00:42:29.191Z,6.32
2022-08-19T00:45:19.680Z,7.35
2022-08-19T00:48:05.528Z,6.90
2022-08-19T00:50:57.795Z,6.70
2022-08-19T00:53:44.462Z,6.78
2022-08-19T00:56:31.672Z,5.93
2022-08-19T00:59:56.526Z,7.57
2022-08-19T01:02:25.187Z,6.03
2022-08-19T01:05:14.187Z,6.95
2022-08-19T01:08:01.656Z,6.30
2022-08-19T01:10:56.875Z,6.38
2022-08-19T01:13:49.448Z,6.82
2022-08-19T01:16:38.137Z,7.40
2022-08-19T01:19:43.981Z,7.30
2022-08-19T01:22:45.040Z,6.68
2022-08-19T01:25:51.460Z,7.22
2022-08-19T01:28:40.001Z,8.68
2022-08-19T01:31:32.467Z,6.43
2022-08-19T01:34:18.859Z,7.95
2022-08-19T01:37:09.491Z,6.30
2022-08-19T01:39:55.497Z,7.15
2022-08-19T01:42:42.048Z,7.03
2022-08-19T01:45:29.543Z,6.70
2022-08-19T01:48:16.073Z,8.18
2022-08-19T01:51:02.461Z,6.32
2022-08-19T01:53:52.767Z,9.93
2022-08-19T01:56:39.246Z,6.82
2022-08-19T01:59:25.345Z,7.60
2022-08-19T02:02:11.404Z,7.22
2022-08-19T02:04:57.237Z,6.80
2022-08-19T02:07:43.149Z,8.15
2022-08-19T02:10:28.974Z,8.73
2022-08-19T02:13:14.939Z,9.13
2022-08-19T02:16:00.822Z,9.95
2022-08-19T02:18:50.226Z,8.25
2022-08-19T02:21:36.438Z,11.27
2022-08-19T02:24:22.034Z,9.38
2022-08-19T02:27:07.898Z,12.30
2022-08-19T02:29:53.860Z,10.50
2022-08-19T02:32:44.348Z,10.60
2022-08-19T02:35:30.719Z,10.07
2022-08-19T02:38:26.319Z,9.90
2022-08-19T02:41:22.301Z,9.45
2022-08-19T02:44:30.929Z,9.77
2022-08-19T02:47:17.648Z,12.75
2022-08-19T02:50:05.139Z,8.95
2022-08-19T02:52:51.268Z,10.15
2022-08-19T02:55:46.165Z,8.52
2022-08-19T02:58:32.074Z,8.73
2022-08-19T03:01:32.025Z,7.80
2022-08-19T03:04:18.255Z,10.00
2022-08-19T03:07:10.593Z,7.70
2022-08-19T03:09:56.935Z,9.73
2022-08-19T03:12:42.839Z,11.57
2022-08-19T03:15:28.662Z,8.25
2022-08-19T03:18:15.386Z,8.07
2022-08-19T03:21:01.688Z,10.80
2022-08-19T03:23:47.778Z,8.93
2022-08-19T03:26:34.047Z,8.68
2022-08-19T03:29:30.604Z,9.05
2022-08-19T03:32:27.890Z,9.75
2022-08-19T03:35:18.937Z,9.77
2022-08-19T03:38:07.799Z,11.35
2022-08-19T03:40:53.542Z,11.18
2022-08-19T03:43:40.620Z,13.07
2022-08-19T03:46:28.979Z,12.45
2022-08-19T03:49:15.260Z,11.50
2022-08-19T03:52:05.992Z,14.60
2022-08-19T03:54:52.617Z,13.77
2022-08-19T03:57:38.647Z,12.30
2022-08-19T04:00:24.468Z,14.20
2022-08-19T04:03:10.320Z,13.27
2022-08-19T04:05:56.206Z,15.52
2022-08-19T04:08:42.828Z,15.40
2022-08-19T04:11:42.866Z,14.23
2022-08-19T04:14:31.530Z,14.38
2022-08-19T04:17:17.558Z,16.55
2022-08-19T04:20:07.131Z,15.50
2022-08-19T04:22:53.203Z,15.20
2022-08-19T04:25:41.702Z,16.25
2022-08-19T04:28:27.523Z,15.93
2022-08-19T04:31:18.732Z,15.18
2022-08-19T04:34:06.773Z,16.52
2022-08-19T04:36:54.883Z,16.90
2022-08-19T04:40:02.434Z,16.55
2022-08-19T04:42:48.365Z,17.08
2022-08-19T04:45:39.594Z,17.08
2022-08-19T04:48:29.883Z,17.95
2022-08-19T04:51:16.246Z,18.23
2022-08-19T04:54:04.957Z,15.65
2022-08-19T04:56:51.421Z,17.63
2022-08-19T04:59:38.641Z,20.58
2022-08-19T05:02:25.591Z,20.10
2022-08-19T05:05:11.516Z,17.48
2022-08-19T05:07:57.179Z,18.00
2022-08-19T05:10:43.152Z,20.13
2022-08-19T05:13:29.111Z,20.17
2022-08-19T05:16:15.285Z,17.38
2022-08-19T05:19:20.068Z,18.23
2022-08-19T05:22:24.524Z,20.13
2022-08-19T05:25:13.988Z,16.83
2022-08-19T05:28:00.041Z,21.48
2022-08-19T05:30:47.558Z,19.00
2022-08-19T05:33:34.090Z,19.13
2022-08-19T05:36:20.994Z,18.35
2022-08-19T05:39:09.072Z,16.73
2022-08-19T05:42:02.354Z,18.75
2022-08-19T05:44:50.071Z,21.33
2022-08-19T05:47:36.579Z,19.70
2022-08-19T05:50:28.137Z,20.35
2022-08-19T05:53:15.506Z,18.92
2022-08-19T05:56:08.638Z,16.27
2022-08-19T05:58:55.218Z,19.10
2022-08-19T06:01:44.235Z,21.98
2022-08-19T06:04:30.178Z,17.75
2022-08-19T06:07:16.285Z,22.88
2022-08-19T06:10:02.019Z,21.67
2022-08-19T06:12:47.887Z,19.55
2022-08-19T06:15:33.729Z,17.58
2022-08-19T06:18:20.634Z,18.60
2022-08-19T06:21:06.904Z,17.90
2022-08-19T06:23:53.155Z,19.60
2022-08-19T06:26:41.059Z,18.27
2022-08-19T06:29:28.101Z,18.65
2022-08-19T06:32:15.871Z,17.73
2022-08-19T06:35:01.655Z,18.25
2022-08-19T06:37:47.993Z,16.63
2022-08-19T06:40:33.956Z,15.95
2022-08-19T06:43:19.831Z,16.55
2022-08-19T06:46:09.440Z,17.52
2022-08-19T06:48:55.366Z,18.60
2022-08-19T06:51:44.156Z,16.25
2022-08-19T06:54:30.660Z,14.75
2022-08-19T06:57:16.909Z,15.10
2022-08-19T07:00:03.027Z,12.98
2022-08-19T07:02:53.413Z,12.20
2022-08-19T07:05:45.639Z,14.57
2022-08-19T07:08:32.706Z,13.32
2022-08-19T07:11:19.984Z,10.27
2022-08-19T07:14:07.499Z,12.80
2022-08-19T07:17:11.360Z,12.70
2022-08-19T07:19:56.877Z,10.43
2022-08-19T07:22:42.804Z,11.32
2022-08-19T07:25:32.229Z,11.45
2022-08-19T07:28:24.505Z,10.68
2022-08-19T07:31:15.314Z,10.77
2022-08-19T07:34:01.189Z,9.27
2022-08-19T07:36:47.088Z,10.77
2022-08-19T07:39:35.663Z,10.90
2022-08-19T07:42:22.109Z,12.75
2022-08-19T07:45:08.962Z,9.32
2022-08-19T07:47:55.158Z,9.70
2022-08-19T07:50:40.680Z,10.25
2022-08-19T07:53:26.728Z,10.13
2022-08-19T07:56:13.917Z,9.77
2022-08-19T07:58:59.660Z,8.82
2022-08-19T08:01:45.965Z,9.18
2022-08-19T08:04:50.917Z,12.98
2022-08-19T08:07:54.991Z,8.15
2022-08-19T08:10:40.956Z,12.20
2022-08-19T08:13:28.036Z,10.13
2022-08-19T08:16:14.419Z,8.63
2022-08-19T08:19:01.185Z,8.93
2022-08-19T08:21:47.120Z,9.05
2022-08-19T08:24:34.537Z,7.40
2022-08-19T08:27:22.650Z,7.78
2022-08-19T08:30:16.864Z,7.30
2022-08-19T08:33:05.084Z,8.00
2022-08-19T08:35:50.964Z,8.25
2022-08-19T08:38:41.608Z,6.47
2022-08-19T08:41:50.511Z,7.05
2022-08-19T08:44:51.292Z,8.05
2022-08-19T08:47:42.058Z,8.55
2022-08-19T08:50:37.289Z,5.82
2022-08-19T08:53:27.450Z,6.38
2022-08-19T08:56:18.792Z,7.43
2022-08-19T08:59:25.662Z,5.95
2022-08-19T09:02:11.830Z,6.18
2022-08-19T09:04:57.617Z,6.65
2022-08-19T09:08:01.354Z,5.88
2022-08-19T09:10:58.419Z,4.50
2022-08-19T09:14:40.696Z,6.20
2022-08-19T09:17:34.636Z,6.25
2022-08-19T09:20:26.125Z,8.30
2022-08-19T09:23:11.994Z,5.78
2022-08-19T09:25:58.498Z,5.68
2022-08-19T09:28:48.793Z,4.57
2022-08-19T09:31:34.664Z,4.72
2022-08-19T09:34:22.064Z,3.40
2022-08-19T09:37:07.760Z,3.03
2022-08-19T09:39:54.206Z,4.38
2022-08-19T09:42:50.072Z,2.78
2022-08-19T09:45:36.987Z,3.58
2022-08-19T09:48:23.729Z,4.57
2022-08-19T09:51:18.566Z,4.63
2022-08-19T09:54:06.887Z,5.15
2022-08-19T09:56:57.696Z,2.88
2022-08-19T09:59:43.760Z,4.82
2022-08-19T10:02:29.535Z,2.42
2022-08-19T10:05:33.314Z,4.60
2022-08-19T10:08:28.325Z,4.43
2022-08-19T10:11:27.289Z,3.33
2022-08-19T10:14:23.240Z,2.38
2022-08-19T10:17:20.037Z,2.53
2022-08-19T10:20:08.050Z,4.40
2022-08-19T10:22:53.709Z,3.30
2022-08-19T10:25:39.469Z,2.83
2022-08-19T10:28:29.156Z,2.42
2022-08-19T10:32:00.898Z,4.60
2022-08-19T10:34:34.730Z,3.10
2022-08-19T10:37:23.865Z,2.72
2022-08-19T10:40:14.670Z,2.65
2022-08-19T10:43:00.021Z,3.05
2022-08-19T10:45:53.055Z,2.60
2022-08-19T10:48:38.749Z,2.90
2022-08-19T10:51:47.765Z,2.53
2022-08-19T10:54:53.396Z,3.08
2022-08-19T10:58:01.358Z,3.25
2022-08-19T11:00:54.126Z,3.67
2022-08-19T11:03:39.533Z,2.28
2022-08-19T11:06:28.660Z,2.58
2022-08-19T11:09:20.574Z,3.38
2022-08-19T11:12:06.413Z,3.42
2022-08-19T11:14:51.792Z,3.25
2022-08-19T11:17:38.237Z,2.35
2022-08-19T11:20:24.578Z,1.92
2022-08-19T11:23:11.722Z,1.83
2022-08-19T11:25:58.041Z,2.00
2022-08-19T11:28:44.084Z,2.20
2022-08-19T11:31:32.948Z,2.28
2022-08-19T11:34:21.996Z,1.63
2022-08-19T11:37:09.548Z,2.63
2022-08-19T11:39:55.335Z,2.10
2022-08-19T11:42:57.127Z,2.67
2022-08-19T11:45:43.360Z,5.72
2022-08-19T11:48:28.715Z,3.17
2022-08-19T11:51:17.574Z,2.30
2022-08-19T11:54:05.365Z,2.35
2022-08-19T11:56:51.207Z,2.33
2022-08-19T11:59:36.608Z,3.42
2022-08-19T12:02:22.771Z,4.20
2022-08-19T12:05:12.300Z,2.30
2022-08-19T12:07:58.240Z,2.70
2022-08-19T12:10:45.292Z,2.78
2022-08-19T12:13:31.932Z,3.38
2022-08-19T12:16:22.375Z,3.30
2022-08-19T12:19:08.067Z,1.85
2022-08-19T12:21:56.339Z,3.28
2022-08-19T12:24:42.070Z,3.17
2022-08-19T12:27:39.853Z,2.28
2022-08-19T12:30:26.343Z,2.78
2022-08-19T12:33:12.358Z,4.03
2022-08-19T12:36:03.991Z,3.85
2022-08-19T12:38:49.482Z,2.10
2022-08-19T12:41:34.933Z,2.35
2022-08-19T12:44:29.585Z,1.67
2022-08-19T12:47:19.702Z,1.98
2022-08-19T12:50:09.414Z,1.48
2022-08-19T12:52:54.635Z,3.17
2022-08-19T12:55:40.160Z,1.80
2022-08-19T12:58:27.355Z,1.58
2022-08-19T13:01:17.557Z,2.55
2022-08-19T13:04:07.693Z,2.50
2022-08-19T13:06:53.314Z,2.60
2022-08-19T13:09:38.732Z,1.80
2022-08-19T13:12:27.444Z,3.00
2022-08-19T13:15:15.069Z,3.03
2022-08-19T13:18:00.867Z,4.50
2022-08-19T13:20:52.868Z,1.98
2022-08-19T13:23:38.929Z,2.80
2022-08-19T13:26:24.605Z,1.70
2022-08-19T13:29:28.889Z,2.13
2022-08-19T13:32:32.806Z,2.50
2022-08-19T13:35:19.293Z,2.72
2022-08-19T13:38:11.814Z,6.63
2022-08-19T13:41:09.939Z,2.50
2022-08-19T13:43:57.887Z,2.38
2022-08-19T13:46:45.576Z,2.72
2022-08-19T13:49:31.896Z,2.97
2022-08-19T13:52:17.348Z,2.40
2022-08-19T13:55:03.207Z,2.80
2022-08-19T13:57:52.777Z,2.20
2022-08-19T14:00:42.304Z,3.58
2022-08-19T14:03:28.529Z,2.08
2022-08-19T14:06:14.307Z,2.28
2022-08-19T14:09:00.366Z,2.45
2022-08-19T14:11:47.567Z,2.25
2022-08-19T14:14:33.589Z,2.38
2022-08-19T14:17:19.224Z,1.98
2022-08-19T14:20:10.383Z,2.20
2022-08-19T14:22:56.779Z,2.60
2022-08-19T14:25:42.409Z,2.00
2022-08-19T14:28:29.366Z,1.75
2022-08-19T14:31:20.211Z,3.17
2022-08-19T14:34:05.764Z,2.00
2022-08-19T14:36:51.208Z,2.58
2022-08-19T14:39:36.869Z,1.73
2022-08-19T14:42:22.479Z,2.05
2022-08-19T14:45:08.582Z,2.40
2022-08-19T14:47:54.444Z,3.08
2022-08-19T14:50:42.333Z,2.03
2022-08-19T14:53:27.806Z,2.15
2022-08-19T14:56:15.390Z,1.75
2022-08-19T14:59:01.949Z,2.80
2022-08-19T15:01:47.427Z,2.78
2022-08-19T15:04:33.893Z,2.00
2022-08-19T15:07:19.244Z,3.13
2022-08-19T15:10:07.804Z,1.60
2022-08-19T15:12:54.271Z,2.67
2022-08-19T15:15:40.486Z,2.00
2022-08-19T15:18:26.182Z,2.30
2022-08-19T15:21:26.886Z,2.45
2022-08-19T15:24:13.090Z,4.13
2022-08-19T15:27:00.083Z,2.40
2022-08-19T15:29:46.269Z,2.30
2022-08-19T15:32:31.791Z,2.83
2022-08-19T15:35:19.297Z,2.47
2022-08-19T15:38:06.483Z,3.13
2022-08-19T15:40:52.669Z,3.33
2022-08-19T15:43:42.686Z,2.70
2022-08-19T15:46:30.937Z,2.20
2022-08-19T15:49:18.505Z,3.95
2022-08-19T15:52:05.785Z,2.25
2022-08-19T15:54:51.356Z,2.90
2022-08-19T15:57:55.476Z,2.17
2022-08-19T16:00:59.559Z,2.40
2022-08-19T16:04:14.323Z,2.60
2022-08-19T16:07:02.227Z,2.42
2022-08-19T16:09:47.627Z,2.85
2022-08-19T16:12:33.284Z,3.35
2022-08-19T16:15:20.891Z,2.15
2022-08-19T16:18:06.549Z,3.65
2022-08-19T16:20:52.151Z,2.10
2022-08-19T16:23:37.498Z,2.35
2022-08-19T16:26:24.424Z,2.50
2022-08-19T16:29:15.604Z,2.53
2022-08-19T16:32:19.876Z,1.80
2022-08-19T16:35:06.886Z,2.75
2022-08-19T16:37:52.111Z,2.40
2022-08-19T16:40:37.693Z,3.67
2022-08-19T16:43:24.719Z,1.95
2022-08-19T16:46:11.042Z,2.33
2022-08-19T16:48:56.418Z,1.80
2022-08-19T16:51:43.920Z,1.58
2022-08-19T16:54:32.474Z,2.97
2022-08-19T16:57:19.228Z,2.00
2022-08-19T17:00:11.060Z,2.72
2022-08-19T17:02:57.091Z,3.28
2022-08-19T17:05:51.296Z,2.88
2022-08-19T17:08:36.486Z,2.28
2022-08-19T17:11:24.342Z,2.40
2022-08-19T17:14:10.031Z,2.13
2022-08-19T17:16:55.206Z,2.40
2022-08-19T17:19:42.158Z,2.13
2022-08-19T17:22:27.591Z,3.47
2022-08-19T17:25:13.371Z,2.22
2022-08-19T17:28:07.198Z,2.75
2022-08-19T17:30:53.169Z,2.45
2022-08-19T17:33:41.206Z,2.40
2022-08-19T17:36:29.232Z,2.50
2022-08-19T17:39:14.961Z,2.50
2022-08-19T17:42:02.573Z,2.63
2022-08-19T17:44:50.733Z,2.28
2022-08-19T17:47:37.554Z,3.00
2022-08-19T17:50:23.763Z,2.85
2022-08-19T17:53:09.720Z,3.90
2022-08-19T17:56:00.113Z,2.55
2022-08-19T17:58:54.372Z,2.60
2022-08-19T18:01:53.497Z,2.50
2022-08-19T18:04:39.848Z,4.43
2022-08-19T18:07:25.290Z,3.00
2022-08-19T18:10:11.171Z,2.83
2022-08-19T18:12:56.491Z,1.90
2022-08-19T18:15:42.472Z,2.22
2022-08-19T18:18:31.114Z,3.05
2022-08-19T18:21:16.708Z,2.38
2022-08-19T18:24:02.681Z,2.65
2022-08-19T18:26:49.245Z,2.55
2022-08-19T18:29:38.400Z,3.42
2022-08-19T18:32:26.165Z,3.40
2022-08-19T18:35:15.855Z,2.90
2022-08-19T18:38:22.448Z,2.88
2022-08-19T18:41:27.794Z,2.30
2022-08-19T18:44:31.750Z,3.05
2022-08-19T18:47:35.802Z,3.17
2022-08-19T18:50:21.223Z,2.50
2022-08-19T18:53:06.628Z,3.25
2022-08-19T18:55:53.970Z,2.40
2022-08-19T18:58:40.959Z,2.80
2022-08-19T19:01:31.537Z,2.97
2022-08-19T19:04:19.703Z,3.03
2022-08-19T19:07:06.717Z,3.00
2022-08-19T19:09:52.478Z,3.88
2022-08-19T19:12:42.169Z,5.70
2022-08-19T19:15:29.373Z,3.17
2022-08-19T19:18:14.608Z,4.28
2022-08-19T19:21:00.283Z,3.65
2022-08-19T19:23:46.112Z,2.42
2022-08-19T19:26:32.010Z,5.38
2022-08-19T19:29:19.403Z,2.78
2022-08-19T19:32:11.375Z,2.35
2022-08-19T19:34:57.469Z,3.55
2022-08-19T19:37:45.133Z,2.88
2022-08-19T19:40:30.742Z,3.35
2022-08-19T19:43:17.111Z,4.32
2022-08-19T19:46:02.604Z,3.70
2022-08-19T19:48:48.469Z,3.08
2022-08-19T19:51:37.665Z,4.97
2022-08-19T19:54:24.073Z,11.02
2022-08-19T19:57:09.642Z,5.90
2022-08-19T19:59:55.748Z,8.27
2022-08-19T20:02:46.659Z,3.13
2022-08-19T20:05:35.303Z,3.80
2022-08-19T20:08:39.585Z,2.60
2022-08-19T20:11:32.881Z,5.07
2022-08-19T20:14:18.716Z,3.10
2022-08-19T20:17:05.321Z,2.67
2022-08-19T20:19:51.363Z,2.90
2022-08-19T20:22:43.056Z,2.30
2022-08-19T20:25:28.930Z,3.42
2022-08-19T20:28:14.987Z,3.35
2022-08-19T20:31:01.091Z,2.88
2022-08-19T20:33:47.388Z,5.50
2022-08-19T20:36:34.380Z,5.57
2022-08-19T20:39:20.289Z,3.10
2022-08-19T20:42:05.948Z,2.63
2022-08-19T20:44:51.662Z,5.75
2022-08-19T20:47:38.052Z,4.18
2022-08-19T20:50:24.257Z,3.85
2022-08-19T20:53:19.462Z,4.35
2022-08-19T20:56:06.750Z,3.53
2022-08-19T20:58:59.382Z,3.15
2022-08-19T21:01:46.109Z,2.53
2022-08-19T21:04:33.087Z,2.40
2022-08-19T21:07:19.308Z,2.58
2022-08-19T21:10:06.743Z,4.07
2022-08-19T21:12:53.507Z,2.25
2022-08-19T21:15:40.704Z,2.53
2022-08-19T21:18:26.913Z,5.05
2022-08-19T21:21:12.685Z,5.53
2022-08-19T21:23:58.694Z,3.50
2022-08-19T21:26:48.210Z,3.08
2022-08-19T21:29:39.009Z,4.60
2022-08-19T21:32:24.605Z,2.78
2022-08-19T21:35:11.141Z,3.40
2022-08-19T21:37:57.580Z,2.30
2022-08-19T21:40:43.507Z,3.45
2022-08-19T21:43:29.532Z,2.63
2022-08-19T21:46:16.344Z,3.40
2022-08-19T21:49:02.029Z,2.70
2022-08-19T21:51:47.670Z,3.03
2022-08-19T21:54:38.511Z,2.50
2022-08-19T21:57:25.252Z,2.50
2022-08-19T22:00:17.464Z,2.40
2022-08-19T22:03:04.683Z,3.92
2022-08-19T22:05:50.794Z,3.55
2022-08-19T22:08:36.541Z,3.03
2022-08-19T22:11:26.406Z,2.65
2022-08-19T22:14:12.104Z,2.67
2022-08-19T22:16:57.459Z,2.47
2022-08-19T22:19:43.128Z,2.90
2022-08-19T22:22:32.251Z,3.17
2022-08-19T22:25:31.222Z,2.80
2022-08-19T22:28:18.727Z,3.20
2022-08-19T22:31:04.643Z,3.30
2022-08-19T22:33:52.233Z,4.03
2022-08-19T22:36:38.184Z,2.30
2022-08-19T22:39:23.513Z,2.63
2022-08-19T22:42:11.406Z,3.28
2022-08-19T22:44:58.884Z,2.83
2022-08-19T22:47:45.411Z,2.67
2022-08-19T22:50:31.146Z,2.60
2022-08-19T22:53:17.171Z,4.75
2022-08-19T22:56:03.895Z,2.70
2022-08-19T22:58:53.089Z,2.60
2022-08-19T23:01:41.817Z,3.17
2022-08-19T23:04:27.147Z,2.67
2022-08-19T23:07:12.529Z,3.22
2022-08-19T23:09:58.383Z,3.63
2022-08-19T23:12:47.510Z,3.20
2022-08-19T23:15:34.482Z,3.13
2022-08-19T23:18:20.308Z,2.13
2022-08-19T23:21:09.462Z,5.00
2022-08-19T23:23:56.408Z,2.97
2022-08-19T23:27:02.241Z,4.35
2022-08-19T23:30:06.935Z,2.60
2022-08-19T23:33:21.475Z,3.17
2022-08-19T23:36:12.092Z,2.60
2022-08-19T23:38:59.452Z,2.40
2022-08-19T23:41:45.029Z,2.67
2022-08-19T23:44:30.867Z,3.17
2022-08-19T23:47:16.764Z,2.80
2022-08-19T23:50:06.637Z,2.70
2022-08-19T23:52:57.825Z,5.78
2022-08-19T23:55:45.144Z,3.17
2022-08-19T23:58:31.874Z,2.88
